createdAt,value
2023-02-01T00:01:37.862Z,17.9
2023-02-01T00:07:22.247Z,20.4
2023-02-01T00:13:06.006Z,20.9
2023-02-01T00:18:50.649Z,23.1
2023-02-01T00:24:34.495Z,18.5
2023-02-01T00:30:19.544Z,16.2
2023-02-01T00:36:04.653Z,19.4
2023-02-01T00:41:48.583Z,18.4
2023-02-01T00:47:32.273Z,17.4
2023-02-01T00:53:16.118Z,20.1
2023-02-01T00:59:00.159Z,17.6
2023-02-01T01:04:43.921Z,15.3
2023-02-01T01:10:27.785Z,14.7
2023-02-01T01:16:12.738Z,13.9
2023-02-01T01:21:57.539Z,14.3
2023-02-01T01:27:41.168Z,17.8
2023-02-01T01:33:25.169Z,15.4
2023-02-01T01:39:08.982Z,14.3
2023-02-01T01:45:04.208Z,13.4
2023-02-01T01:50:50.540Z,14.6
2023-02-01T01:56:35.573Z,12.8
2023-02-01T02:02:19.936Z,13
2023-02-01T02:08:04.285Z,14.5
2023-02-01T02:13:49.811Z,15.4
2023-02-01T02:19:44.916Z,11
2023-02-01T02:25:41.017Z,12
2023-02-01T02:31:37.909Z,12.1
2023-02-01T02:37:27.068Z,11.4
2023-02-01T02:43:15.685Z,11.6
2023-02-01T02:49:04.443Z,12
2023-02-01T02:54:50.359Z,13.6
2023-02-01T03:00:36.346Z,9.5
2023-02-01T03:06:21.297Z,12.9
2023-02-01T03:12:07.919Z,15
2023-02-01T03:17:54.112Z,12.2
2023-02-01T03:23:39.624Z,14.7
2023-02-01T03:29:27.878Z,8.4
2023-02-01T03:35:12.283Z,9.4
2023-02-01T03:40:59.737Z,14.9
2023-02-01T03:46:47.064Z,11.5
2023-02-01T03:52:32.393Z,12.5
2023-02-01T03:58:17.261Z,10.1
2023-02-01T04:04:01.329Z,10.1
2023-02-01T04:09:45.097Z,12
2023-02-01T04:15:28.926Z,13.2
2023-02-01T04:21:12.917Z,9.3
2023-02-01T04:26:56.820Z,14.2
2023-02-01T04:32:44.445Z,11.3
2023-02-01T04:38:28.456Z,13.3
2023-02-01T04:44:16.498Z,12.3
2023-02-01T04:50:00.419Z,13
2023-02-01T04:55:44.415Z,14.8
2023-02-01T05:01:28.391Z,11.6
2023-02-01T05:07:12.357Z,13.1
2023-02-01T05:12:56.113Z,14.4
2023-02-01T05:18:40.032Z,9.7
2023-02-01T05:24:23.955Z,12.4
2023-02-01T05:30:08.654Z,15.6
2023-02-01T05:35:52.477Z,11.6
2023-02-01T05:41:36.358Z,11.7
2023-02-01T05:47:20.277Z,15.9
2023-02-01T05:53:04.077Z,13.7
2023-02-01T05:58:47.919Z,15.1
2023-02-01T06:04:31.951Z,12.8
2023-02-01T06:10:16.756Z,12.4
2023-02-01T06:16:00.702Z,12.1
2023-02-01T06:21:44.504Z,13.2
2023-02-01T06:27:28.384Z,11.4
2023-02-01T06:33:12.158Z,11.2
2023-02-01T06:38:55.881Z,11.8
2023-02-01T06:44:39.653Z,12.7
2023-02-01T06:50:25.289Z,10.1
2023-02-01T06:56:10.029Z,15.1
2023-02-01T07:01:54.040Z,10.3
2023-02-01T07:07:37.934Z,14.1
2023-02-01T07:13:21.759Z,14.9
2023-02-01T07:19:10.150Z,17.1
2023-02-01T07:24:53.893Z,15.4
2023-02-01T07:30:37.826Z,14.6
2023-02-01T07:36:22.425Z,14.6
2023-02-01T07:42:06.470Z,16.5
2023-02-01T07:47:55.056Z,16.6
2023-02-01T07:53:39.165Z,16.1
2023-02-01T07:59:23.102Z,15.2
2023-02-01T08:05:07.189Z,16.9
2023-02-01T08:10:51.006Z,15.9
2023-02-01T08:16:35.267Z,16.9
2023-02-01T08:22:19.116Z,16.1
2023-02-01T08:28:03.045Z,17.7
2023-02-01T08:33:47.453Z,11.8
2023-02-01T08:39:31.301Z,15.4
2023-02-01T08:45:15.709Z,15.4
2023-02-01T08:50:59.497Z,16.6
2023-02-01T08:56:43.649Z,14.3
2023-02-01T09:02:27.477Z,20.8
2023-02-01T09:08:11.708Z,17.3
2023-02-01T09:13:55.564Z,15
2023-02-01T09:19:40.126Z,15.7
2023-02-01T09:25:25.182Z,14.2
2023-02-01T09:31:09.904Z,17.7
2023-02-01T09:36:53.731Z,15.9
2023-02-01T09:42:46.913Z,15.8
2023-02-01T09:48:34.471Z,12.4
2023-02-01T09:54:19.913Z,16.2
2023-02-01T10:00:06.488Z,14.2
2023-02-01T10:06:10.115Z,16.6
2023-02-01T10:11:59.718Z,14.4
2023-02-01T10:17:51.264Z,12.4
2023-02-01T10:23:45.511Z,12.2
2023-02-01T10:29:33.013Z,15.2
2023-02-01T10:35:19.432Z,15.4
2023-02-01T10:41:06.456Z,15.9
2023-02-01T10:46:50.302Z,15.2
2023-02-01T10:52:38.631Z,12
2023-02-01T10:58:23.718Z,14.8
2023-02-01T11:04:08.715Z,13.6
2023-02-01T11:09:56.697Z,10.8
2023-02-01T11:15:40.559Z,13.6
2023-02-01T11:21:25.193Z,10
2023-02-01T11:27:27.762Z,9.8
2023-02-01T11:33:15.923Z,9.7
2023-02-01T11:39:06.918Z,9.6
2023-02-01T11:44:51.074Z,10.5
2023-02-01T11:50:41.920Z,9.4
2023-02-01T11:56:29.947Z,8.2
2023-02-01T12:02:24.225Z,8.4
2023-02-01T12:08:18.448Z,9.5
2023-02-01T12:14:07.721Z,11.6
2023-02-01T12:20:00.408Z,6.3
2023-02-01T12:25:51.809Z,9.4
2023-02-01T12:31:48.425Z,9.3
2023-02-01T12:37:39.953Z,9.5
2023-02-01T12:43:30.579Z,9.1
2023-02-01T12:49:17.768Z,8.2
2023-02-01T12:55:04.635Z,9.5
2023-02-01T13:00:53.487Z,10.2
2023-02-01T13:06:40.342Z,11.5
2023-02-01T13:12:25.715Z,11.5
2023-02-01T13:18:10.639Z,6.1
2023-02-01T13:23:55.831Z,6.9
2023-02-01T13:29:41.396Z,8.3
2023-02-01T13:35:35.862Z,12
2023-02-01T13:41:27.361Z,9.6
2023-02-01T13:47:16.362Z,9.6
2023-02-01T13:53:02.069Z,10.8
2023-02-01T13:58:46.933Z,10.2
2023-02-01T14:04:42.350Z,9.2
2023-02-01T14:10:37.751Z,8.7
2023-02-01T14:16:22.175Z,10
2023-02-01T14:22:12.611Z,9.3
2023-02-01T14:27:57.069Z,11
2023-02-01T14:33:45.117Z,10.9
2023-02-01T14:39:30.615Z,10.1
2023-02-01T14:45:28.701Z,11.1
2023-02-01T14:51:14.875Z,10.5
2023-02-01T14:56:58.905Z,10.3
2023-02-01T15:02:43.389Z,10.8
2023-02-01T15:08:32.130Z,9.9
2023-02-01T15:14:18.820Z,12.3
2023-02-01T15:20:08.980Z,9
2023-02-01T15:25:55.756Z,7.3
2023-02-01T15:31:41.549Z,9.5
2023-02-01T15:37:26.797Z,7.4
2023-02-01T15:43:15.637Z,13.4
2023-02-01T15:48:59.888Z,10.9
2023-02-01T15:54:46.725Z,8.8
2023-02-01T16:00:32.782Z,11.1
2023-02-01T16:06:21.882Z,8.1
2023-02-01T16:12:06.623Z,7.6
2023-02-01T16:17:50.502Z,8.5
2023-02-01T16:23:35.370Z,9.3
2023-02-01T16:29:19.159Z,14.8
2023-02-01T16:35:03.650Z,11.2
2023-02-01T16:40:48.356Z,7.8
2023-02-01T16:46:35.893Z,10.9
2023-02-01T16:52:25.691Z,11.2
2023-02-01T16:58:09.606Z,7.4
2023-02-01T17:03:53.625Z,11.1
2023-02-01T17:09:37.560Z,14.3
2023-02-01T17:15:23.097Z,29.9
2023-02-01T17:21:08.660Z,86.7
2023-02-01T17:26:52.816Z,51.4
2023-02-01T17:32:38.297Z,44.7
2023-02-01T17:38:22.531Z,42.8
2023-02-01T17:44:06.569Z,67.5
2023-02-01T17:49:50.569Z,65.4
2023-02-01T17:55:36.621Z,52.7
2023-02-01T18:01:21.584Z,60.4
2023-02-01T18:07:06.522Z,42.4
2023-02-01T18:12:50.480Z,43.2
2023-02-01T18:18:34.338Z,33.1
2023-02-01T18:24:19.600Z,28.3
2023-02-01T18:30:04.957Z,28.6
2023-02-01T18:35:49.319Z,27.5
2023-02-01T18:41:35.111Z,24.6
2023-02-01T18:47:19.991Z,24.3
2023-02-01T18:53:04.653Z,20.3
2023-02-01T18:58:48.858Z,18.1
2023-02-01T19:04:32.775Z,18.9
2023-02-01T19:10:19.256Z,20.9
2023-02-01T19:16:09.057Z,22.9
2023-02-01T19:21:53.032Z,16.9
2023-02-01T19:27:37.262Z,14.3
2023-02-01T19:33:21.176Z,16.3
2023-02-01T19:39:04.840Z,24
2023-02-01T19:44:48.655Z,13.4
2023-02-01T19:50:32.333Z,16.2
2023-02-01T19:56:16.238Z,13.6
2023-02-01T20:02:00.086Z,16.5
2023-02-01T20:07:44.334Z,17.7
2023-02-01T20:13:28.239Z,14.9
2023-02-01T20:19:12.111Z,12.4
2023-02-01T20:24:57.117Z,14.9
2023-02-01T20:30:42.130Z,13.9
2023-02-01T20:36:25.974Z,10.4
2023-02-01T20:42:10.128Z,17.2
2023-02-01T20:47:55.577Z,16.8
2023-02-01T20:53:39.562Z,13.7
2023-02-01T20:59:24.142Z,17.7
2023-02-01T21:05:08.460Z,16.1
2023-02-01T21:11:01.687Z,16.8
2023-02-01T21:16:45.689Z,14.2
2023-02-01T21:22:29.723Z,15.4
2023-02-01T21:28:13.914Z,17.3
2023-02-01T21:33:58.145Z,14.9
2023-02-01T21:39:42.109Z,18.1
2023-02-01T21:45:27.210Z,13.9
2023-02-01T21:51:11.373Z,16.4
2023-02-01T21:56:55.340Z,20.1
2023-02-01T22:02:39.920Z,16.6
2023-02-01T22:08:24.281Z,15.7
2023-02-01T22:14:08.393Z,18.9
2023-02-01T22:19:52.507Z,15.1
2023-02-01T22:25:37.450Z,15.4
2023-02-01T22:31:22.540Z,19.4
2023-02-01T22:37:06.458Z,16.2
2023-02-01T22:42:50.317Z,14.4
2023-02-01T22:48:36.798Z,19
2023-02-01T22:54:23.940Z,13.8
2023-02-01T23:00:09.086Z,13.7
2023-02-01T23:05:52.952Z,15.9
2023-02-01T23:11:36.645Z,14.9
2023-02-01T23:17:21.564Z,16.2
2023-02-01T23:23:05.518Z,14.4
2023-02-01T23:28:49.412Z,14.7
2023-02-01T23:34:33.299Z,14.4
2023-02-01T23:40:18.062Z,12.6
2023-02-01T23:46:04.211Z,13.3
2023-02-01T23:51:48.381Z,12.7
2023-02-01T23:57:32.261Z,15.9
